sensor_id;sensor_type;location;lat;lon;timestamp;P1;durP1;ratioP1;P2;durP2;ratioP2
26908;SDS011;14477;51.038;4.588;2022-10-23T00:00:08;3.07;;;1.90;;
26908;SDS011;14477;51.038;4.588;2022-10-23T00:02:34;3.17;;;1.90;;
26908;SDS011;14477;51.038;4.588;2022-10-23T00:04:59;3.50;;;1.90;;
26908;SDS011;14477;51.038;4.588;2022-10-23T00:07:25;3.47;;;1.83;;
26908;SDS011;14477;51.038;4.588;2022-10-23T00:09:51;3.37;;;1.90;;
26908;SDS011;14477;51.038;4.588;2022-10-23T00:12:16;4.00;;;1.98;;
26908;SDS011;14477;51.038;4.588;2022-10-23T00:14:42;5.47;;;2.10;;
26908;SDS011;14477;51.038;4.588;2022-10-23T00:17:08;3.93;;;1.90;;
26908;SDS011;14477;51.038;4.588;2022-10-23T00:19:36;3.08;;;1.60;;
26908;SDS011;14477;51.038;4.588;2022-10-23T00:22:02;3.40;;;1.80;;
26908;SDS011;14477;51.038;4.588;2022-10-23T00:24:27;3.87;;;1.87;;
26908;SDS011;14477;51.038;4.588;2022-10-23T00:26:53;4.03;;;1.80;;
26908;SDS011;14477;51.038;4.588;2022-10-23T00:29:18;5.20;;;1.93;;
26908;SDS011;14477;51.038;4.588;2022-10-23T00:31:44;3.20;;;1.80;;
26908;SDS011;14477;51.038;4.588;2022-10-23T00:34:10;2.47;;;1.60;;
26908;SDS011;14477;51.038;4.588;2022-10-23T00:36:36;3.63;;;1.80;;
26908;SDS011;14477;51.038;4.588;2022-10-23T00:39:02;3.60;;;1.80;;
26908;SDS011;14477;51.038;4.588;2022-10-23T00:41:28;2.75;;;1.60;;
26908;SDS011;14477;51.038;4.588;2022-10-23T00:46:30;5.07;;;1.75;;
26908;SDS011;14477;51.038;4.588;2022-10-23T00:48:57;3.28;;;1.90;;
26908;SDS011;14477;51.038;4.588;2022-10-23T00:51:23;2.40;;;1.40;;
26908;SDS011;14477;51.038;4.588;2022-10-23T00:53:53;5.20;;;1.52;;
26908;SDS011;14477;51.038;4.588;2022-10-23T00:56:21;3.47;;;1.63;;
26908;SDS011;14477;51.038;4.588;2022-10-23T00:58:46;4.70;;;1.73;;
26908;SDS011;14477;51.038;4.588;2022-10-23T01:01:13;4.55;;;1.70;;
26908;SDS011;14477;51.038;4.588;2022-10-23T01:03:42;5.53;;;2.00;;
26908;SDS011;14477;51.038;4.588;2022-10-23T01:06:20;5.47;;;1.80;;
26908;SDS011;14477;51.038;4.588;2022-10-23T01:09:01;2.78;;;1.70;;
26908;SDS011;14477;51.038;4.588;2022-10-23T01:11:41;3.45;;;1.88;;
26908;SDS011;14477;51.038;4.588;2022-10-23T01:14:27;3.40;;;1.40;;
26908;SDS011;14477;51.038;4.588;2022-10-23T01:17:22;2.80;;;1.60;;
26908;SDS011;14477;51.038;4.588;2022-10-23T01:28:37;3.43;;;1.73;;
26908;SDS011;14477;51.038;4.588;2022-10-23T01:31:10;3.83;;;1.80;;
26908;SDS011;14477;51.038;4.588;2022-10-23T01:33:46;3.33;;;1.70;;
26908;SDS011;14477;51.038;4.588;2022-10-23T01:36:15;3.15;;;1.80;;
26908;SDS011;14477;51.038;4.588;2022-10-23T01:38:51;2.95;;;1.67;;
26908;SDS011;14477;51.038;4.588;2022-10-23T01:41:28;2.17;;;1.50;;
26908;SDS011;14477;51.038;4.588;2022-10-23T01:46:38;2.20;;;1.40;;
26908;SDS011;14477;51.038;4.588;2022-10-23T01:49:05;2.92;;;1.60;;
26908;SDS011;14477;51.038;4.588;2022-10-23T01:51:36;3.35;;;1.70;;
26908;SDS011;14477;51.038;4.588;2022-10-23T01:54:04;3.43;;;1.30;;
26908;SDS011;14477;51.038;4.588;2022-10-23T01:56:34;2.85;;;1.40;;
26908;SDS011;14477;51.038;4.588;2022-10-23T01:59:04;3.30;;;1.63;;
26908;SDS011;14477;51.038;4.588;2022-10-23T02:01:34;3.47;;;1.50;;
26908;SDS011;14477;51.038;4.588;2022-10-23T02:04:04;4.65;;;1.70;;
26908;SDS011;14477;51.038;4.588;2022-10-23T02:06:34;4.00;;;1.57;;
26908;SDS011;14477;51.038;4.588;2022-10-23T02:09:00;4.07;;;1.50;;
26908;SDS011;14477;51.038;4.588;2022-10-23T02:11:25;2.85;;;1.40;;
26908;SDS011;14477;51.038;4.588;2022-10-23T02:14:01;4.50;;;1.60;;
26908;SDS011;14477;51.038;4.588;2022-10-23T02:16:37;3.22;;;1.60;;
26908;SDS011;14477;51.038;4.588;2022-10-23T02:24:30;3.35;;;1.42;;
26908;SDS011;14477;51.038;4.588;2022-10-23T02:27:01;3.22;;;1.60;;
26908;SDS011;14477;51.038;4.588;2022-10-23T02:29:55;3.55;;;1.60;;
26908;SDS011;14477;51.038;4.588;2022-10-23T02:32:26;3.33;;;1.50;;
26908;SDS011;14477;51.038;4.588;2022-10-23T02:34:53;2.27;;;1.40;;
26908;SDS011;14477;51.038;4.588;2022-10-23T02:37:19;3.03;;;1.50;;
26908;SDS011;14477;51.038;4.588;2022-10-23T02:39:45;3.95;;;1.70;;
26908;SDS011;14477;51.038;4.588;2022-10-23T02:50:17;2.47;;;1.33;;
26908;SDS011;14477;51.038;4.588;2022-10-23T02:56:08;3.03;;;1.35;;
26908;SDS011;14477;51.038;4.588;2022-10-23T02:59:06;3.60;;;1.43;;
26908;SDS011;14477;51.038;4.588;2022-10-23T03:01:50;2.45;;;1.35;;
26908;SDS011;14477;51.038;4.588;2022-10-23T03:04:26;2.03;;;1.20;;
26908;SDS011;14477;51.038;4.588;2022-10-23T03:06:53;3.00;;;1.40;;
26908;SDS011;14477;51.038;4.588;2022-10-23T03:09:19;1.75;;;1.30;;
26908;SDS011;14477;51.038;4.588;2022-10-23T03:11:45;2.63;;;1.20;;
26908;SDS011;14477;51.038;4.588;2022-10-23T03:14:11;2.60;;;1.20;;
26908;SDS011;14477;51.038;4.588;2022-10-23T03:16:38;2.95;;;1.30;;
26908;SDS011;14477;51.038;4.588;2022-10-23T03:19:03;2.78;;;1.20;;
26908;SDS011;14477;51.038;4.588;2022-10-23T03:21:29;2.20;;;1.40;;
26908;SDS011;14477;51.038;4.588;2022-10-23T03:23:55;3.20;;;1.30;;
26908;SDS011;14477;51.038;4.588;2022-10-23T03:26:20;2.38;;;1.30;;
26908;SDS011;14477;51.038;4.588;2022-10-23T03:28:46;3.17;;;1.30;;
26908;SDS011;14477;51.038;4.588;2022-10-23T03:31:11;2.75;;;1.27;;
26908;SDS011;14477;51.038;4.588;2022-10-23T03:33:37;1.97;;;1.23;;
26908;SDS011;14477;51.038;4.588;2022-10-23T03:36:03;1.90;;;1.20;;
26908;SDS011;14477;51.038;4.588;2022-10-23T03:38:30;2.25;;;1.35;;
26908;SDS011;14477;51.038;4.588;2022-10-23T03:40:56;2.13;;;1.30;;
26908;SDS011;14477;51.038;4.588;2022-10-23T03:43:21;2.77;;;1.30;;
26908;SDS011;14477;51.038;4.588;2022-10-23T03:45:47;2.75;;;1.40;;
26908;SDS011;14477;51.038;4.588;2022-10-23T03:48:12;2.40;;;1.33;;
26908;SDS011;14477;51.038;4.588;2022-10-23T03:50:38;2.33;;;1.30;;
26908;SDS011;14477;51.038;4.588;2022-10-23T03:53:04;2.63;;;1.20;;
26908;SDS011;14477;51.038;4.588;2022-10-23T03:55:30;2.30;;;1.30;;
26908;SDS011;14477;51.038;4.588;2022-10-23T03:57:56;3.47;;;1.30;;
26908;SDS011;14477;51.038;4.588;2022-10-23T04:00:21;3.27;;;1.37;;
26908;SDS011;14477;51.038;4.588;2022-10-23T04:02:47;1.90;;;1.20;;
26908;SDS011;14477;51.038;4.588;2022-10-23T04:05:13;3.40;;;1.20;;
26908;SDS011;14477;51.038;4.588;2022-10-23T04:07:39;2.00;;;1.10;;
26908;SDS011;14477;51.038;4.588;2022-10-23T04:10:04;2.23;;;1.30;;
26908;SDS011;14477;51.038;4.588;2022-10-23T04:12:30;2.30;;;1.13;;
26908;SDS011;14477;51.038;4.588;2022-10-23T04:14:56;3.13;;;1.20;;
26908;SDS011;14477;51.038;4.588;2022-10-23T04:17:22;2.53;;;1.13;;
26908;SDS011;14477;51.038;4.588;2022-10-23T04:19:47;2.25;;;1.20;;
26908;SDS011;14477;51.038;4.588;2022-10-23T04:22:13;3.13;;;1.23;;
26908;SDS011;14477;51.038;4.588;2022-10-23T04:24:39;1.80;;;1.10;;
26908;SDS011;14477;51.038;4.588;2022-10-23T04:27:09;2.83;;;1.10;;
26908;SDS011;14477;51.038;4.588;2022-10-23T04:29:35;2.95;;;1.10;;
26908;SDS011;14477;51.038;4.588;2022-10-23T04:32:00;1.93;;;1.07;;
26908;SDS011;14477;51.038;4.588;2022-10-23T04:34:26;1.92;;;1.17;;
26908;SDS011;14477;51.038;4.588;2022-10-23T04:36:51;2.13;;;1.10;;
26908;SDS011;14477;51.038;4.588;2022-10-23T04:39:17;1.77;;;1.10;;
26908;SDS011;14477;51.038;4.588;2022-10-23T04:41:43;2.05;;;1.00;;
26908;SDS011;14477;51.038;4.588;2022-10-23T04:44:08;2.53;;;1.13;;
26908;SDS011;14477;51.038;4.588;2022-10-23T04:46:34;2.22;;;1.17;;
26908;SDS011;14477;51.038;4.588;2022-10-23T04:49:00;2.60;;;1.07;;
26908;SDS011;14477;51.038;4.588;2022-10-23T04:51:25;1.75;;;1.10;;
26908;SDS011;14477;51.038;4.588;2022-10-23T04:53:51;2.60;;;1.17;;
26908;SDS011;14477;51.038;4.588;2022-10-23T04:56:16;2.28;;;1.00;;
26908;SDS011;14477;51.038;4.588;2022-10-23T04:58:42;1.87;;;1.10;;
26908;SDS011;14477;51.038;4.588;2022-10-23T05:01:08;4.70;;;1.10;;
26908;SDS011;14477;51.038;4.588;2022-10-23T05:03:37;1.95;;;1.00;;
26908;SDS011;14477;51.038;4.588;2022-10-23T05:06:03;1.92;;;1.10;;
26908;SDS011;14477;51.038;4.588;2022-10-23T05:08:29;2.15;;;0.85;;
26908;SDS011;14477;51.038;4.588;2022-10-23T05:10:55;2.40;;;1.33;;
26908;SDS011;14477;51.038;4.588;2022-10-23T05:13:20;1.92;;;0.98;;
26908;SDS011;14477;51.038;4.588;2022-10-23T05:15:50;1.70;;;1.10;;
26908;SDS011;14477;51.038;4.588;2022-10-23T05:18:28;2.15;;;1.10;;
26908;SDS011;14477;51.038;4.588;2022-10-23T05:20:59;2.25;;;1.00;;
26908;SDS011;14477;51.038;4.588;2022-10-23T05:23:30;2.33;;;0.98;;
26908;SDS011;14477;51.038;4.588;2022-10-23T05:25:59;2.50;;;1.17;;
26908;SDS011;14477;51.038;4.588;2022-10-23T05:28:27;2.20;;;1.13;;
26908;SDS011;14477;51.038;4.588;2022-10-23T05:30:53;2.65;;;1.20;;
26908;SDS011;14477;51.038;4.588;2022-10-23T05:33:19;2.40;;;1.10;;
26908;SDS011;14477;51.038;4.588;2022-10-23T05:35:45;1.57;;;1.00;;
26908;SDS011;14477;51.038;4.588;2022-10-23T05:38:11;2.25;;;1.10;;
26908;SDS011;14477;51.038;4.588;2022-10-23T05:40:38;1.73;;;1.00;;
26908;SDS011;14477;51.038;4.588;2022-10-23T05:43:03;2.70;;;1.00;;
26908;SDS011;14477;51.038;4.588;2022-10-23T05:45:29;1.33;;;1.00;;
26908;SDS011;14477;51.038;4.588;2022-10-23T05:47:55;2.93;;;1.20;;
26908;SDS011;14477;51.038;4.588;2022-10-23T05:50:21;2.13;;;1.00;;
26908;SDS011;14477;51.038;4.588;2022-10-23T05:52:47;2.07;;;1.10;;
26908;SDS011;14477;51.038;4.588;2022-10-23T05:55:13;2.25;;;1.10;;
26908;SDS011;14477;51.038;4.588;2022-10-23T05:57:39;2.22;;;1.02;;
26908;SDS011;14477;51.038;4.588;2022-10-23T06:00:05;2.58;;;1.17;;
26908;SDS011;14477;51.038;4.588;2022-10-23T06:02:31;1.97;;;1.00;;
26908;SDS011;14477;51.038;4.588;2022-10-23T06:04:57;1.65;;;1.02;;
26908;SDS011;14477;51.038;4.588;2022-10-23T06:07:23;2.30;;;1.10;;
26908;SDS011;14477;51.038;4.588;2022-10-23T06:09:49;1.63;;;1.00;;
26908;SDS011;14477;51.038;4.588;2022-10-23T06:12:15;1.95;;;1.00;;
26908;SDS011;14477;51.038;4.588;2022-10-23T06:14:41;2.37;;;1.20;;
26908;SDS011;14477;51.038;4.588;2022-10-23T06:17:06;2.10;;;1.00;;
26908;SDS011;14477;51.038;4.588;2022-10-23T06:19:32;1.90;;;1.00;;
26908;SDS011;14477;51.038;4.588;2022-10-23T06:21:57;2.33;;;1.20;;
26908;SDS011;14477;51.038;4.588;2022-10-23T06:24:24;3.45;;;1.17;;
26908;SDS011;14477;51.038;4.588;2022-10-23T06:26:49;2.20;;;1.20;;
26908;SDS011;14477;51.038;4.588;2022-10-23T06:29:15;1.40;;;1.00;;
26908;SDS011;14477;51.038;4.588;2022-10-23T06:31:41;1.90;;;1.13;;
26908;SDS011;14477;51.038;4.588;2022-10-23T06:34:08;1.35;;;0.93;;
26908;SDS011;14477;51.038;4.588;2022-10-23T06:36:36;1.85;;;1.00;;
26908;SDS011;14477;51.038;4.588;2022-10-23T06:39:02;2.65;;;1.23;;
26908;SDS011;14477;51.038;4.588;2022-10-23T06:41:29;2.47;;;1.20;;
26908;SDS011;14477;51.038;4.588;2022-10-23T06:43:54;1.98;;;0.93;;
26908;SDS011;14477;51.038;4.588;2022-10-23T06:46:20;2.20;;;1.10;;
26908;SDS011;14477;51.038;4.588;2022-10-23T06:48:46;2.55;;;1.00;;
26908;SDS011;14477;51.038;4.588;2022-10-23T06:51:12;2.93;;;1.20;;
26908;SDS011;14477;51.038;4.588;2022-10-23T06:53:41;1.98;;;1.10;;
26908;SDS011;14477;51.038;4.588;2022-10-23T06:56:07;2.70;;;1.10;;
26908;SDS011;14477;51.038;4.588;2022-10-23T06:58:34;1.65;;;1.05;;
26908;SDS011;14477;51.038;4.588;2022-10-23T07:01:02;1.93;;;1.07;;
26908;SDS011;14477;51.038;4.588;2022-10-23T07:03:29;1.85;;;1.00;;
26908;SDS011;14477;51.038;4.588;2022-10-23T07:05:58;1.83;;;1.08;;
26908;SDS011;14477;51.038;4.588;2022-10-23T07:08:25;1.30;;;1.00;;
26908;SDS011;14477;51.038;4.588;2022-10-23T07:10:50;2.00;;;1.13;;
26908;SDS011;14477;51.038;4.588;2022-10-23T07:13:16;1.88;;;1.20;;
26908;SDS011;14477;51.038;4.588;2022-10-23T07:15:42;1.87;;;1.00;;
26908;SDS011;14477;51.038;4.588;2022-10-23T07:18:08;2.42;;;1.10;;
26908;SDS011;14477;51.038;4.588;2022-10-23T07:20:39;2.00;;;1.10;;
26908;SDS011;14477;51.038;4.588;2022-10-23T07:23:05;3.35;;;1.17;;
26908;SDS011;14477;51.038;4.588;2022-10-23T07:25:31;1.70;;;1.10;;
26908;SDS011;14477;51.038;4.588;2022-10-23T07:27:57;2.13;;;1.10;;
26908;SDS011;14477;51.038;4.588;2022-10-23T07:30:23;1.33;;;1.10;;
26908;SDS011;14477;51.038;4.588;2022-10-23T07:32:49;1.30;;;1.10;;
26908;SDS011;14477;51.038;4.588;2022-10-23T07:35:15;2.30;;;1.10;;
26908;SDS011;14477;51.038;4.588;2022-10-23T07:37:41;1.95;;;1.10;;
26908;SDS011;14477;51.038;4.588;2022-10-23T07:40:07;3.33;;;1.30;;
26908;SDS011;14477;51.038;4.588;2022-10-23T07:42:33;1.83;;;1.13;;
26908;SDS011;14477;51.038;4.588;2022-10-23T07:44:59;1.88;;;1.20;;
26908;SDS011;14477;51.038;4.588;2022-10-23T07:47:25;1.67;;;1.13;;
26908;SDS011;14477;51.038;4.588;2022-10-23T07:49:50;2.50;;;1.10;;
26908;SDS011;14477;51.038;4.588;2022-10-23T07:52:16;1.70;;;1.20;;
26908;SDS011;14477;51.038;4.588;2022-10-23T07:54:42;1.97;;;1.10;;
26908;SDS011;14477;51.038;4.588;2022-10-23T07:57:08;2.23;;;1.20;;
26908;SDS011;14477;51.038;4.588;2022-10-23T07:59:36;2.55;;;1.20;;
26908;SDS011;14477;51.038;4.588;2022-10-23T08:02:02;2.35;;;1.15;;
26908;SDS011;14477;51.038;4.588;2022-10-23T08:04:28;2.17;;;1.20;;
26908;SDS011;14477;51.038;4.588;2022-10-23T08:06:53;1.85;;;1.10;;
26908;SDS011;14477;51.038;4.588;2022-10-23T08:09:20;4.70;;;1.33;;
26908;SDS011;14477;51.038;4.588;2022-10-23T08:11:46;2.97;;;1.17;;
26908;SDS011;14477;51.038;4.588;2022-10-23T08:14:11;2.33;;;1.30;;
26908;SDS011;14477;51.038;4.588;2022-10-23T08:16:37;2.93;;;1.20;;
26908;SDS011;14477;51.038;4.588;2022-10-23T08:19:04;1.75;;;1.20;;
26908;SDS011;14477;51.038;4.588;2022-10-23T08:21:31;1.88;;;1.23;;
26908;SDS011;14477;51.038;4.588;2022-10-23T08:23:57;1.87;;;1.20;;
26908;SDS011;14477;51.038;4.588;2022-10-23T08:26:24;2.20;;;1.17;;
26908;SDS011;14477;51.038;4.588;2022-10-23T08:28:53;1.92;;;1.10;;
26908;SDS011;14477;51.038;4.588;2022-10-23T08:31:20;2.65;;;1.20;;
26908;SDS011;14477;51.038;4.588;2022-10-23T08:33:46;1.92;;;1.00;;
26908;SDS011;14477;51.038;4.588;2022-10-23T08:36:22;2.30;;;1.10;;
26908;SDS011;14477;51.038;4.588;2022-10-23T08:38:52;2.22;;;1.08;;
26908;SDS011;14477;51.038;4.588;2022-10-23T08:44:28;3.50;;;1.47;;
26908;SDS011;14477;51.038;4.588;2022-10-23T08:49:42;2.60;;;1.23;;
26908;SDS011;14477;51.038;4.588;2022-10-23T08:52:24;1.88;;;1.20;;
26908;SDS011;14477;51.038;4.588;2022-10-23T08:57:54;1.80;;;1.10;;
26908;SDS011;14477;51.038;4.588;2022-10-23T09:00:31;1.70;;;1.00;;
26908;SDS011;14477;51.038;4.588;2022-10-23T09:02:59;1.90;;;1.10;;
26908;SDS011;14477;51.038;4.588;2022-10-23T09:05:30;2.92;;;1.30;;
26908;SDS011;14477;51.038;4.588;2022-10-23T09:08:03;2.65;;;1.02;;
26908;SDS011;14477;51.038;4.588;2022-10-23T09:19:21;1.65;;;1.10;;
26908;SDS011;14477;51.038;4.588;2022-10-23T09:21:52;2.10;;;1.17;;
26908;SDS011;14477;51.038;4.588;2022-10-23T09:24:20;1.80;;;1.10;;
26908;SDS011;14477;51.038;4.588;2022-10-23T09:26:48;1.90;;;1.20;;
26908;SDS011;14477;51.038;4.588;2022-10-23T09:29:21;2.25;;;1.33;;
26908;SDS011;14477;51.038;4.588;2022-10-23T09:32:00;1.77;;;1.08;;
26908;SDS011;14477;51.038;4.588;2022-10-23T09:34:29;1.85;;;1.20;;
26908;SDS011;14477;51.038;4.588;2022-10-23T09:37:20;1.97;;;0.97;;
26908;SDS011;14477;51.038;4.588;2022-10-23T09:40:13;2.08;;;0.95;;
26908;SDS011;14477;51.038;4.588;2022-10-23T09:42:50;3.15;;;1.25;;
26908;SDS011;14477;51.038;4.588;2022-10-23T09:45:28;2.10;;;0.90;;
26908;SDS011;14477;51.038;4.588;2022-10-23T09:48:03;1.42;;;1.00;;
26908;SDS011;14477;51.038;4.588;2022-10-23T09:50:45;3.37;;;1.10;;
26908;SDS011;14477;51.038;4.588;2022-10-23T09:53:33;2.95;;;1.40;;
26908;SDS011;14477;51.038;4.588;2022-10-23T09:56:30;2.47;;;1.15;;
26908;SDS011;14477;51.038;4.588;2022-10-23T09:59:00;1.85;;;1.15;;
26908;SDS011;14477;51.038;4.588;2022-10-23T10:01:29;2.08;;;1.10;;
26908;SDS011;14477;51.038;4.588;2022-10-23T10:03:57;2.33;;;1.30;;
26908;SDS011;14477;51.038;4.588;2022-10-23T10:06:28;2.95;;;1.40;;
26908;SDS011;14477;51.038;4.588;2022-10-23T10:08:56;2.75;;;1.08;;
26908;SDS011;14477;51.038;4.588;2022-10-23T10:17:03;1.80;;;1.20;;
26908;SDS011;14477;51.038;4.588;2022-10-23T10:30:25;2.43;;;1.20;;
26908;SDS011;14477;51.038;4.588;2022-10-23T10:33:32;2.85;;;1.15;;
26908;SDS011;14477;51.038;4.588;2022-10-23T10:36:01;2.78;;;1.23;;
26908;SDS011;14477;51.038;4.588;2022-10-23T10:38:41;1.65;;;1.20;;
26908;SDS011;14477;51.038;4.588;2022-10-23T10:46:30;3.30;;;1.50;;
26908;SDS011;14477;51.038;4.588;2022-10-23T10:49:16;2.67;;;1.40;;
26908;SDS011;14477;51.038;4.588;2022-10-23T10:52:01;2.05;;;1.27;;
26908;SDS011;14477;51.038;4.588;2022-10-23T10:54:38;2.92;;;1.55;;
26908;SDS011;14477;51.038;4.588;2022-10-23T10:57:21;2.60;;;1.10;;
26908;SDS011;14477;51.038;4.588;2022-10-23T10:59:49;3.22;;;1.45;;
26908;SDS011;14477;51.038;4.588;2022-10-23T11:08:00;2.38;;;1.33;;
26908;SDS011;14477;51.038;4.588;2022-10-23T11:10:31;2.73;;;1.20;;
26908;SDS011;14477;51.038;4.588;2022-10-23T11:12:59;2.20;;;1.42;;
26908;SDS011;14477;51.038;4.588;2022-10-23T11:15:38;2.35;;;1.50;;
26908;SDS011;14477;51.038;4.588;2022-10-23T11:18:14;2.30;;;1.30;;
26908;SDS011;14477;51.038;4.588;2022-10-23T11:26:50;2.50;;;1.50;;
26908;SDS011;14477;51.038;4.588;2022-10-23T11:29:33;2.15;;;1.27;;
26908;SDS011;14477;51.038;4.588;2022-10-23T11:35:09;2.03;;;1.40;;
26908;SDS011;14477;51.038;4.588;2022-10-23T11:40:45;2.85;;;1.33;;
26908;SDS011;14477;51.038;4.588;2022-10-23T11:45:54;3.78;;;1.38;;
26908;SDS011;14477;51.038;4.588;2022-10-23T11:48:21;2.70;;;1.57;;
26908;SDS011;14477;51.038;4.588;2022-10-23T11:50:59;2.00;;;1.23;;
26908;SDS011;14477;51.038;4.588;2022-10-23T11:56:22;2.75;;;1.50;;
26908;SDS011;14477;51.038;4.588;2022-10-23T11:58:50;3.47;;;1.30;;
26908;SDS011;14477;51.038;4.588;2022-10-23T12:01:35;3.13;;;1.50;;
26908;SDS011;14477;51.038;4.588;2022-10-23T12:06:50;2.05;;;1.40;;
26908;SDS011;14477;51.038;4.588;2022-10-23T12:19:49;2.15;;;1.40;;
26908;SDS011;14477;51.038;4.588;2022-10-23T12:25:22;2.40;;;1.70;;
26908;SDS011;14477;51.038;4.588;2022-10-23T12:33:49;2.95;;;1.40;;
26908;SDS011;14477;51.038;4.588;2022-10-23T12:36:42;2.80;;;1.33;;
26908;SDS011;14477;51.038;4.588;2022-10-23T12:39:33;2.65;;;1.20;;
26908;SDS011;14477;51.038;4.588;2022-10-23T12:42:01;3.13;;;1.33;;
26908;SDS011;14477;51.038;4.588;2022-10-23T12:44:28;5.03;;;1.23;;
26908;SDS011;14477;51.038;4.588;2022-10-23T12:46:56;2.22;;;1.38;;
26908;SDS011;14477;51.038;4.588;2022-10-23T12:49:27;2.20;;;1.20;;
26908;SDS011;14477;51.038;4.588;2022-10-23T12:52:12;2.67;;;1.10;;
26908;SDS011;14477;51.038;4.588;2022-10-23T12:54:43;1.87;;;1.30;;
26908;SDS011;14477;51.038;4.588;2022-10-23T12:57:19;2.00;;;1.20;;
26908;SDS011;14477;51.038;4.588;2022-10-23T12:59:48;2.83;;;1.40;;
26908;SDS011;14477;51.038;4.588;2022-10-23T13:04:44;2.30;;;1.17;;
26908;SDS011;14477;51.038;4.588;2022-10-23T13:07:10;2.45;;;1.33;;
26908;SDS011;14477;51.038;4.588;2022-10-23T13:09:39;1.75;;;1.23;;
26908;SDS011;14477;51.038;4.588;2022-10-23T13:12:07;2.67;;;1.40;;
26908;SDS011;14477;51.038;4.588;2022-10-23T13:14:40;4.03;;;1.27;;
26908;SDS011;14477;51.038;4.588;2022-10-23T13:17:10;1.67;;;1.20;;
26908;SDS011;14477;51.038;4.588;2022-10-23T13:19:36;2.78;;;1.30;;
26908;SDS011;14477;51.038;4.588;2022-10-23T13:22:23;2.25;;;1.30;;
26908;SDS011;14477;51.038;4.588;2022-10-23T13:24:48;1.85;;;1.20;;
26908;SDS011;14477;51.038;4.588;2022-10-23T13:27:24;1.63;;;1.10;;
26908;SDS011;14477;51.038;4.588;2022-10-23T13:29:57;2.33;;;1.15;;
26908;SDS011;14477;51.038;4.588;2022-10-23T13:32:24;2.07;;;1.20;;
26908;SDS011;14477;51.038;4.588;2022-10-23T13:34:53;2.83;;;1.08;;
26908;SDS011;14477;51.038;4.588;2022-10-23T13:37:24;2.85;;;1.40;;
26908;SDS011;14477;51.038;4.588;2022-10-23T13:39:59;3.42;;;1.10;;
26908;SDS011;14477;51.038;4.588;2022-10-23T13:42:26;4.68;;;1.30;;
26908;SDS011;14477;51.038;4.588;2022-10-23T13:44:52;1.83;;;1.00;;
26908;SDS011;14477;51.038;4.588;2022-10-23T13:47:17;1.42;;;1.05;;
26908;SDS011;14477;51.038;4.588;2022-10-23T13:49:45;2.37;;;1.23;;
26908;SDS011;14477;51.038;4.588;2022-10-23T13:52:11;1.67;;;1.10;;
26908;SDS011;14477;51.038;4.588;2022-10-23T13:54:41;2.13;;;1.10;;
26908;SDS011;14477;51.038;4.588;2022-10-23T13:57:10;2.22;;;1.30;;
26908;SDS011;14477;51.038;4.588;2022-10-23T13:59:38;1.70;;;1.10;;
26908;SDS011;14477;51.038;4.588;2022-10-23T14:02:09;1.83;;;1.10;;
26908;SDS011;14477;51.038;4.588;2022-10-23T14:04:45;2.15;;;1.05;;
26908;SDS011;14477;51.038;4.588;2022-10-23T14:07:11;2.72;;;1.10;;
26908;SDS011;14477;51.038;4.588;2022-10-23T14:09:37;2.40;;;1.30;;
26908;SDS011;14477;51.038;4.588;2022-10-23T14:12:03;1.85;;;1.10;;
26908;SDS011;14477;51.038;4.588;2022-10-23T14:14:28;2.20;;;1.20;;
26908;SDS011;14477;51.038;4.588;2022-10-23T14:16:54;2.20;;;1.10;;
26908;SDS011;14477;51.038;4.588;2022-10-23T14:19:20;1.70;;;0.90;;
26908;SDS011;14477;51.038;4.588;2022-10-23T14:21:45;1.80;;;1.15;;
26908;SDS011;14477;51.038;4.588;2022-10-23T14:24:11;1.97;;;1.10;;
26908;SDS011;14477;51.038;4.588;2022-10-23T14:26:36;2.45;;;1.15;;
26908;SDS011;14477;51.038;4.588;2022-10-23T14:29:02;2.33;;;1.07;;
26908;SDS011;14477;51.038;4.588;2022-10-23T14:31:28;2.20;;;1.10;;
26908;SDS011;14477;51.038;4.588;2022-10-23T14:33:54;2.70;;;1.33;;
26908;SDS011;14477;51.038;4.588;2022-10-23T14:36:22;1.48;;;1.13;;
26908;SDS011;14477;51.038;4.588;2022-10-23T14:38:48;2.95;;;1.20;;
26908;SDS011;14477;51.038;4.588;2022-10-23T14:41:15;1.67;;;1.30;;
26908;SDS011;14477;51.038;4.588;2022-10-23T14:43:41;2.13;;;1.30;;
26908;SDS011;14477;51.038;4.588;2022-10-23T14:46:11;2.65;;;1.30;;
26908;SDS011;14477;51.038;4.588;2022-10-23T14:48:38;2.63;;;1.33;;
26908;SDS011;14477;51.038;4.588;2022-10-23T14:51:05;2.75;;;1.30;;
26908;SDS011;14477;51.038;4.588;2022-10-23T14:53:32;3.25;;;1.50;;
26908;SDS011;14477;51.038;4.588;2022-10-23T14:56:02;3.67;;;1.40;;
26908;SDS011;14477;51.038;4.588;2022-10-23T14:58:29;2.20;;;1.30;;
26908;SDS011;14477;51.038;4.588;2022-10-23T15:00:58;3.57;;;1.53;;
26908;SDS011;14477;51.038;4.588;2022-10-23T15:03:25;2.75;;;1.40;;
26908;SDS011;14477;51.038;4.588;2022-10-23T15:05:52;2.22;;;1.45;;
26908;SDS011;14477;51.038;4.588;2022-10-23T15:08:18;2.03;;;1.20;;
26908;SDS011;14477;51.038;4.588;2022-10-23T15:10:45;2.58;;;1.50;;
26908;SDS011;14477;51.038;4.588;2022-10-23T15:13:10;2.70;;;1.20;;
26908;SDS011;14477;51.038;4.588;2022-10-23T15:15:36;2.73;;;1.50;;
26908;SDS011;14477;51.038;4.588;2022-10-23T15:18:03;2.75;;;1.20;;
26908;SDS011;14477;51.038;4.588;2022-10-23T15:20:28;3.33;;;1.33;;
26908;SDS011;14477;51.038;4.588;2022-10-23T15:22:54;1.85;;;1.30;;
26908;SDS011;14477;51.038;4.588;2022-10-23T15:25:20;2.83;;;1.60;;
26908;SDS011;14477;51.038;4.588;2022-10-23T15:27:45;2.47;;;1.50;;
26908;SDS011;14477;51.038;4.588;2022-10-23T15:30:12;1.88;;;1.33;;
26908;SDS011;14477;51.038;4.588;2022-10-23T15:32:38;2.03;;;1.20;;
26908;SDS011;14477;51.038;4.588;2022-10-23T15:35:05;2.30;;;1.20;;
26908;SDS011;14477;51.038;4.588;2022-10-23T15:37:30;2.88;;;1.30;;
26908;SDS011;14477;51.038;4.588;2022-10-23T15:39:57;2.95;;;1.55;;
26908;SDS011;14477;51.038;4.588;2022-10-23T15:42:22;2.30;;;1.40;;
26908;SDS011;14477;51.038;4.588;2022-10-23T15:44:48;2.25;;;1.40;;
26908;SDS011;14477;51.038;4.588;2022-10-23T15:47:14;3.23;;;1.40;;
26908;SDS011;14477;51.038;4.588;2022-10-23T15:49:39;2.83;;;1.40;;
26908;SDS011;14477;51.038;4.588;2022-10-23T15:52:05;3.33;;;1.53;;
26908;SDS011;14477;51.038;4.588;2022-10-23T15:54:32;2.33;;;1.58;;
26908;SDS011;14477;51.038;4.588;2022-10-23T15:56:58;2.50;;;1.40;;
26908;SDS011;14477;51.038;4.588;2022-10-23T15:59:24;2.88;;;1.50;;
26908;SDS011;14477;51.038;4.588;2022-10-23T16:01:50;2.90;;;1.47;;
26908;SDS011;14477;51.038;4.588;2022-10-23T16:04:16;3.13;;;1.48;;
26908;SDS011;14477;51.038;4.588;2022-10-23T16:06:42;2.10;;;1.50;;
26908;SDS011;14477;51.038;4.588;2022-10-23T16:09:09;2.80;;;1.67;;
26908;SDS011;14477;51.038;4.588;2022-10-23T16:11:35;2.97;;;1.80;;
26908;SDS011;14477;51.038;4.588;2022-10-23T16:14:02;1.92;;;1.48;;
26908;SDS011;14477;51.038;4.588;2022-10-23T16:16:29;2.40;;;1.60;;
26908;SDS011;14477;51.038;4.588;2022-10-23T16:18:59;2.53;;;1.50;;
26908;SDS011;14477;51.038;4.588;2022-10-23T16:21:27;2.33;;;1.40;;
26908;SDS011;14477;51.038;4.588;2022-10-23T16:23:56;3.38;;;1.58;;
26908;SDS011;14477;51.038;4.588;2022-10-23T16:26:23;2.88;;;1.70;;
26908;SDS011;14477;51.038;4.588;2022-10-23T16:28:52;3.37;;;1.70;;
26908;SDS011;14477;51.038;4.588;2022-10-23T16:31:19;4.45;;;1.90;;
26908;SDS011;14477;51.038;4.588;2022-10-23T16:33:47;3.20;;;1.80;;
26908;SDS011;14477;51.038;4.588;2022-10-23T16:36:13;4.22;;;1.90;;
26908;SDS011;14477;51.038;4.588;2022-10-23T16:38:39;4.03;;;1.80;;
26908;SDS011;14477;51.038;4.588;2022-10-23T16:41:05;3.30;;;1.80;;
26908;SDS011;14477;51.038;4.588;2022-10-23T16:43:30;3.40;;;1.90;;
26908;SDS011;14477;51.038;4.588;2022-10-23T16:46:15;3.83;;;1.80;;
26908;SDS011;14477;51.038;4.588;2022-10-23T16:48:43;3.53;;;1.60;;
26908;SDS011;14477;51.038;4.588;2022-10-23T16:51:09;2.97;;;1.33;;
26908;SDS011;14477;51.038;4.588;2022-10-23T16:53:37;3.58;;;1.45;;
26908;SDS011;14477;51.038;4.588;2022-10-23T16:56:03;2.97;;;1.67;;